Time;durP1;ratioP1;P1;durP2;ratioP2;P2;SDS_P1;SDS_P2;PMS_P1;PMS_P2;Temp;Humidity;BMP_temperature;BMP_pressure;BME280_temperature;BME280_humidity;BME280_pressure;Samples;Min_cycle;Max_cycle;Signal;HPM_P1;HPM_P2
2022/08/18 00:01:08;;;;;;;13.00;6.10;;;20.30;99.90;;;;;;4984289;28;20054;-58
2022/08/18 00:03:36;;;;;;;11.20;5.40;;;20.30;99.90;;;;;;4989098;28;20129;-57
2022/08/18 00:06:23;;;;;;;11.27;6.05;;;20.30;99.90;;;;;;4978626;28;20494;-58
2022/08/18 00:08:54;;;;;;;14.32;6.10;;;20.30;99.90;;;;;;4971080;28;20058;-58
2022/08/18 00:11:22;;;;;;;14.57;6.07;;;20.20;99.90;;;;;;4988813;28;20137;-58
2022/08/18 00:13:49;;;;;;;13.80;6.07;;;20.20;99.90;;;;;;4970204;28;20498;-59
2022/08/18 00:16:16;;;;;;;12.45;5.80;;;20.20;99.90;;;;;;4989092;28;20042;-60
2022/08/18 00:18:43;;;;;;;12.45;6.22;;;20.20;99.90;;;;;;4989115;28;20645;-57
2022/08/18 00:21:09;;;;;;;14.93;6.05;;;20.20;99.90;;;;;;4989041;28;20086;-59
2022/08/18 00:23:37;;;;;;;9.88;6.15;;;20.20;99.90;;;;;;4972308;28;20133;-59
2022/08/18 00:26:04;;;;;;;12.75;6.32;;;20.20;99.90;;;;;;4990121;28;20054;-58
2022/08/18 00:28:31;;;;;;;10.05;5.97;;;20.20;99.90;;;;;;4990563;28;20069;-59
2022/08/18 00:30:58;;;;;;;9.75;5.30;;;20.10;99.90;;;;;;4990456;28;20554;-59
2022/08/18 00:33:25;;;;;;;13.80;6.15;;;20.10;99.90;;;;;;4989876;28;20323;-59
2022/08/18 00:35:52;;;;;;;14.60;5.75;;;20.10;99.90;;;;;;4990263;28;20465;-59
2022/08/18 00:38:19;;;;;;;10.38;4.90;;;20.10;99.90;;;;;;4986853;28;20099;-58
2022/08/18 00:40:51;;;;;;;7.05;5.32;;;20.10;99.90;;;;;;4979443;28;20057;-62
2022/08/18 00:43:40;;;;;;;9.50;5.20;;;20.00;99.90;;;;;;4989949;28;20077;-60
2022/08/18 00:46:15;;;;;;;12.98;5.35;;;20.10;99.90;;;;;;4965832;28;20074;-59
2022/08/18 00:48:42;;;;;;;11.75;5.55;;;20.00;99.90;;;;;;4987038;28;20039;-59
2022/08/18 00:51:38;;;;;;;10.45;5.38;;;20.00;99.90;;;;;;4973591;28;20089;-59
2022/08/18 00:54:29;;;;;;;12.85;5.80;;;19.90;99.90;;;;;;4972180;28;20042;-58
2022/08/18 00:57:06;;;;;;;13.38;5.20;;;20.00;99.90;;;;;;4972752;28;20481;-59
2022/08/18 00:59:42;;;;;;;14.38;7.07;;;20.00;99.90;;;;;;4969154;28;20077;-58
2022/08/18 01:02:16;;;;;;;14.35;6.05;;;20.00;99.90;;;;;;4972507;28;20516;-59
2022/08/18 01:04:48;;;;;;;;;;;20.00;99.90;;;;;;4965830;28;20070;-59
2022/08/18 01:07:20;;;;;;;14.57;5.35;;;20.00;99.90;;;;;;4963656;28;20329;-59
2022/08/18 01:09:48;;;;;;;11.80;5.22;;;20.00;99.90;;;;;;4972142;28;20046;-58
2022/08/18 01:12:15;;;;;;;21.13;6.50;;;20.00;99.90;;;;;;4989704;28;20078;-59
2022/08/18 01:15:02;;;;;;;11.02;5.65;;;20.00;99.90;;;;;;4981032;28;20145;-60
2022/08/18 01:23:07;;;;;;;9.85;5.47;;;19.90;99.90;;;;;;4970271;28;20129;-60
2022/08/18 01:28:22;;;;;;;13.20;5.57;;;20.00;99.90;;;;;;4974838;28;20051;-59
2022/08/18 01:30:51;;;;;;;14.25;6.47;;;20.00;99.90;;;;;;4989195;28;20050;-58
2022/08/18 01:33:18;;;;;;;11.82;5.65;;;19.90;99.90;;;;;;4989223;28;20089;-58
2022/08/18 01:35:48;;;;;;;13.55;5.55;;;19.90;99.90;;;;;;4989206;28;20082;-59
2022/08/18 01:38:19;;;;;;;11.20;6.20;;;19.90;99.90;;;;;;4971100;28;20081;-59
2022/08/18 01:40:45;;;;;;;10.50;5.72;;;19.90;99.90;;;;;;4625271;28;10000138;-57
2022/08/18 01:43:34;;;;;;;14.15;6.15;;;19.80;99.90;;;;;;4965324;28;20043;-59
2022/08/18 01:46:03;;;;;;;13.93;5.40;;;19.80;99.90;;;;;;4979989;28;20162;-58
2022/08/18 01:48:33;;;;;;;17.17;5.82;;;19.70;99.90;;;;;;4989182;28;20046;-59
2022/08/18 01:51:02;;;;;;;13.60;5.22;;;19.70;99.90;;;;;;4971945;28;20081;-58
2022/08/18 01:53:29;;;;;;;10.70;5.40;;;19.60;99.90;;;;;;4988833;28;20065;-59
2022/08/18 01:55:56;;;;;;;12.48;5.18;;;19.60;99.90;;;;;;4988676;28;20101;-58
2022/08/18 01:58:26;;;;;;;12.23;5.93;;;19.60;99.90;;;;;;4989136;28;20094;-59
2022/08/18 02:01:00;;;;;;;16.65;6.18;;;19.50;99.90;;;;;;4987860;28;20046;-59
2022/08/18 02:03:36;;;;;;;9.80;4.70;;;19.50;99.90;;;;;;4971554;28;20457;-58
2022/08/18 02:06:08;;;;;;;13.32;4.70;;;19.50;99.90;;;;;;4971578;28;20069;-59
2022/08/18 02:08:35;;;;;;;10.93;5.45;;;19.40;99.90;;;;;;4971637;28;20133;-57
2022/08/18 02:11:03;;;;;;;9.48;4.68;;;19.40;99.90;;;;;;4988152;28;20094;-58
2022/08/18 02:13:29;;;;;;;15.77;5.95;;;19.40;99.90;;;;;;4985096;28;20532;-58
2022/08/18 02:15:56;;;;;;;10.20;4.72;;;19.40;99.90;;;;;;4971379;28;20082;-58
2022/08/18 02:18:29;;;;;;;12.10;5.30;;;19.40;99.90;;;;;;4988560;28;20146;-59
2022/08/18 02:21:16;;;;;;;8.77;4.40;;;19.40;99.90;;;;;;4988504;28;20697;-58
2022/08/18 02:23:45;;;;;;;12.50;5.47;;;19.40;99.90;;;;;;4983843;28;20050;-58
2022/08/18 02:26:19;;;;;;;12.02;6.95;;;19.40;99.90;;;;;;4988481;28;20057;-58
2022/08/18 02:28:46;;;;;;;11.88;5.30;;;19.40;99.90;;;;;;4988532;28;20400;-59
2022/08/18 02:31:18;;;;;;;13.65;5.18;;;19.40;99.90;;;;;;4988630;28;20173;-59
2022/08/18 02:33:45;;;;;;;14.65;5.20;;;19.40;99.90;;;;;;4987347;28;20146;-58
2022/08/18 02:36:19;;;;;;;10.32;5.25;;;19.40;99.90;;;;;;4988022;28;20480;-58
2022/08/18 02:38:45;;;;;;;9.52;5.15;;;19.50;99.90;;;;;;4987708;28;20085;-59
2022/08/18 02:41:27;;;;;;;16.65;5.38;;;19.40;99.90;;;;;;4982155;28;20152;-59
2022/08/18 02:43:56;;;;;;;12.25;4.97;;;19.40;99.90;;;;;;4988054;28;20046;-59
2022/08/18 02:46:23;;;;;;;11.20;5.53;;;19.40;99.90;;;;;;4988614;28;20074;-59
2022/08/18 02:48:56;;;;;;;11.43;5.15;;;19.40;99.90;;;;;;4988270;28;20054;-62
2022/08/18 02:51:22;;;;;;;9.65;5.47;;;19.50;99.90;;;;;;4988347;28;20046;-60
2022/08/18 02:53:51;;;;;;;11.63;5.10;;;19.50;99.90;;;;;;4987689;28;20070;-59
2022/08/18 02:56:23;;;;;;;11.93;5.13;;;19.60;99.90;;;;;;4971146;28;20133;-58
2022/08/18 02:59:10;;;;;;;12.73;4.95;;;19.60;99.90;;;;;;4988014;28;20055;-58
2022/08/18 03:01:38;;;;;;;10.27;6.28;;;19.60;99.90;;;;;;4971158;28;20050;-58
2022/08/18 03:04:07;;;;;;;17.13;5.97;;;19.70;99.90;;;;;;4987717;28;20066;-59
2022/08/18 03:06:35;;;;;;;9.25;5.07;;;19.70;99.90;;;;;;4970844;28;20047;-58
2022/08/18 03:09:03;;;;;;;11.10;5.05;;;19.70;99.90;;;;;;4987991;28;20108;-59
2022/08/18 03:11:30;;;;;;;12.05;5.32;;;19.70;99.90;;;;;;4988107;28;20125;-59
2022/08/18 03:13:58;;;;;;;14.30;6.13;;;19.70;99.90;;;;;;4987841;28;20101;-58
2022/08/18 03:16:25;;;;;;;14.50;5.85;;;19.80;99.90;;;;;;4988049;28;20506;-59
2022/08/18 03:18:52;;;;;;;17.27;5.95;;;19.80;99.90;;;;;;4987897;28;20078;-57
2022/08/18 03:21:20;;;;;;;11.70;5.85;;;19.70;99.90;;;;;;4987989;28;20074;-59
2022/08/18 03:23:52;;;;;;;14.95;5.25;;;19.70;99.90;;;;;;4984083;28;20050;-60
2022/08/18 03:26:27;;;;;;;12.45;5.20;;;19.80;99.90;;;;;;4969537;28;20047;-58
2022/08/18 03:28:54;;;;;;;10.93;5.20;;;19.70;99.90;;;;;;4987824;28;20387;-57
2022/08/18 03:31:22;;;;;;;13.02;6.28;;;19.80;99.90;;;;;;4988324;28;20074;-57
2022/08/18 03:33:50;;;;;;;9.98;5.18;;;19.80;99.90;;;;;;4987374;28;20050;-60
2022/08/18 03:36:21;;;;;;;12.38;6.53;;;19.80;99.90;;;;;;4985125;28;20054;-59
2022/08/18 03:38:48;;;;;;;10.88;5.40;;;19.80;99.90;;;;;;4987665;28;20187;-59
2022/08/18 03:41:23;;;;;;;11.35;5.90;;;19.80;99.90;;;;;;4987597;28;20129;-58
2022/08/18 03:44:12;;;;;;;10.93;5.72;;;19.90;99.90;;;;;;4987382;28;20465;-58
2022/08/18 03:46:42;;;;;;;11.85;5.55;;;19.80;99.90;;;;;;4985123;28;20046;-59
2022/08/18 03:49:09;;;;;;;13.80;5.70;;;19.90;99.90;;;;;;4991090;28;20108;-58
2022/08/18 03:51:36;;;;;;;12.82;6.45;;;19.90;99.90;;;;;;4991393;28;20089;-58
2022/08/18 03:54:03;;;;;;;15.02;6.93;;;19.80;99.90;;;;;;4973447;28;20054;-59
2022/08/18 03:56:32;;;;;;;16.50;6.18;;;19.80;99.90;;;;;;4990183;28;20089;-59
2022/08/18 03:59:10;;;;;;;11.88;5.63;;;19.80;99.90;;;;;;4991294;28;20100;-59
2022/08/18 04:01:38;;;;;;;9.90;6.30;;;19.80;99.90;;;;;;4973714;28;20085;-60
2022/08/18 04:04:10;;;;;;;11.35;6.25;;;19.80;99.90;;;;;;4988342;28;20058;-58
2022/08/18 04:06:41;;;;;;;12.90;5.40;;;19.80;99.90;;;;;;4973765;28;20054;-58
2022/08/18 04:09:09;;;;;;;14.10;5.93;;;19.80;99.90;;;;;;4982608;28;20080;-59
2022/08/18 04:11:37;;;;;;;14.32;7.18;;;19.80;99.90;;;;;;4991346;28;20042;-59
2022/08/18 04:14:04;;;;;;;10.45;5.25;;;19.80;99.90;;;;;;4991035;28;20054;-58
2022/08/18 04:16:31;;;;;;;14.27;5.47;;;19.80;99.90;;;;;;4991172;28;20104;-58
2022/08/18 04:19:02;;;;;;;13.20;6.40;;;19.80;99.90;;;;;;4989122;28;20050;-60
2022/08/18 04:21:31;;;;;;;15.18;5.70;;;19.80;99.90;;;;;;4984332;28;20053;-59
2022/08/18 04:24:03;;;;;;;14.27;6.53;;;19.80;99.90;;;;;;4982204;28;20105;-59
2022/08/18 04:26:31;;;;;;;23.05;6.65;;;19.80;99.90;;;;;;4990941;28;20153;-59
2022/08/18 04:29:01;;;;;;;13.55;6.72;;;19.80;99.90;;;;;;4990628;28;20073;-60
2022/08/18 04:31:29;;;;;;;17.20;6.72;;;19.80;99.90;;;;;;4990136;28;20054;-57
2022/08/18 04:33:57;;;;;;;17.65;7.13;;;19.80;99.90;;;;;;4990359;28;20046;-60
2022/08/18 04:36:24;;;;;;;21.00;8.48;;;19.80;99.90;;;;;;4990416;28;20046;-58
2022/08/18 04:38:51;;;;;;;18.23;7.63;;;19.80;99.90;;;;;;4990414;28;20410;-59
2022/08/18 04:41:25;;;;;;;18.40;8.35;;;19.80;99.90;;;;;;4990564;28;20050;-59
2022/08/18 04:44:01;;;;;;;16.52;7.43;;;19.70;99.90;;;;;;4973295;28;20050;-59
2022/08/18 04:46:28;;;;;;;16.70;8.05;;;19.70;99.90;;;;;;4989233;28;20092;-59
2022/08/18 04:48:57;;;;;;;19.60;8.00;;;19.70;99.90;;;;;;4990503;28;20046;-59
2022/08/18 04:51:27;;;;;;;17.42;7.68;;;19.70;99.90;;;;;;4990144;28;20042;-57
2022/08/18 04:54:14;;;;;;;17.73;8.00;;;19.70;99.90;;;;;;4989903;28;20057;-59
2022/08/18 04:56:42;;;;;;;15.23;8.18;;;19.60;99.90;;;;;;4989761;28;20101;-59
2022/08/18 04:59:12;;;;;;;18.45;8.30;;;19.60;99.90;;;;;;4989661;28;20058;-59
2022/08/18 05:01:40;;;;;;;19.02;9.90;;;19.60;99.90;;;;;;4989693;28;20043;-57
2022/08/18 05:04:07;;;;;;;25.13;9.05;;;19.60;99.90;;;;;;4990028;28;20069;-58
2022/08/18 05:06:34;;;;;;;19.95;8.00;;;19.60;99.90;;;;;;4990044;28;20070;-59
2022/08/18 05:09:05;;;;;;;18.08;7.97;;;19.60;99.90;;;;;;4989372;28;20085;-59
2022/08/18 05:11:32;;;;;;;25.02;8.95;;;19.60;99.90;;;;;;4989707;28;20082;-59
2022/08/18 05:14:01;;;;;;;15.50;7.85;;;19.50;99.90;;;;;;4989403;28;20053;-59
2022/08/18 05:16:34;;;;;;;19.92;8.55;;;19.50;99.90;;;;;;4989861;28;20125;-59
2022/08/18 05:19:07;;;;;;;13.27;7.18;;;19.50;99.90;;;;;;4989524;28;20133;-58
2022/08/18 05:21:35;;;;;;;13.75;8.20;;;19.60;99.90;;;;;;4981794;28;20051;-59
2022/08/18 05:24:04;;;;;;;12.48;9.38;;;19.60;99.90;;;;;;4988925;28;20046;-59
2022/08/18 05:26:31;;;;;;;14.07;8.13;;;19.60;99.90;;;;;;4989281;28;20125;-58
2022/08/18 05:28:58;;;;;;;14.45;8.38;;;19.60;99.90;;;;;;4989461;28;20078;-58
2022/08/18 05:31:45;;;;;;;15.55;9.13;;;19.60;99.90;;;;;;4988794;28;20486;-58
2022/08/18 05:34:11;;;;;;;22.10;9.70;;;19.60;99.90;;;;;;4985081;28;20080;-59
2022/08/18 05:36:47;;;;;;;22.20;11.30;;;19.60;99.90;;;;;;4989242;28;20086;-58
2022/08/18 05:39:17;;;;;;;18.73;9.98;;;19.60;99.90;;;;;;4971717;28;20108;-58
2022/08/18 05:42:11;;;;;;;19.63;9.30;;;19.60;99.90;;;;;;4989134;28;20082;-59
2022/08/18 05:44:43;;;;;;;19.88;11.57;;;19.60;99.90;;;;;;4972292;28;20093;-57
2022/08/18 05:47:28;;;;;;;23.33;11.00;;;19.70;99.90;;;;;;4971959;28;20450;-59
2022/08/18 05:49:57;;;;;;;23.38;11.43;;;19.60;99.90;;;;;;4988350;28;20726;-58
2022/08/18 05:52:43;;;;;;;20.05;10.77;;;19.60;99.90;;;;;;4975325;28;20078;-58
2022/08/18 05:58:21;;;;;;;19.15;12.27;;;19.70;99.90;;;;;;4985004;28;20101;-59
2022/08/18 06:00:55;;;;;;;23.90;11.55;;;19.70;99.90;;;;;;4971542;28;21115;-58
2022/08/18 06:03:47;;;;;;;27.10;11.77;;;19.70;99.90;;;;;;4972310;28;20073;-60
2022/08/18 06:06:20;;;;;;;23.35;10.85;;;19.70;99.90;;;;;;4988807;28;20057;-58
2022/08/18 06:09:32;;;;;;;16.88;11.02;;;19.70;99.90;;;;;;4988248;28;20046;-57
2022/08/18 06:12:25;;;;;;;19.63;11.38;;;19.70;99.90;;;;;;4974912;28;20502;-59
2022/08/18 06:14:55;;;;;;;23.58;11.27;;;19.70;99.90;;;;;;4974350;28;20529;-60
2022/08/18 06:17:28;;;;;;;19.42;10.55;;;19.80;99.90;;;;;;4955159;28;21121;-59
2022/08/18 06:20:19;;;;;;;31.20;12.63;;;19.80;99.90;;;;;;4988726;28;20042;-58
2022/08/18 06:23:07;;;;;;;18.60;10.07;;;19.80;99.90;;;;;;4968004;28;20090;-57
2022/08/18 06:25:54;;;;;;;18.02;10.13;;;19.90;99.90;;;;;;4953363;28;20569;-57
2022/08/18 06:28:21;;;;;;;23.60;11.65;;;19.90;99.90;;;;;;4971557;28;20054;-57
2022/08/18 06:30:49;;;;;;;17.70;10.63;;;19.90;99.90;;;;;;4988188;28;20065;-58
2022/08/18 06:33:38;;;;;;;16.25;10.30;;;20.00;99.90;;;;;;4988221;28;20046;-60
2022/08/18 06:36:31;;;;;;;21.67;11.35;;;20.00;99.90;;;;;;4961851;28;20050;-58
2022/08/18 06:39:35;;;;;;;28.38;12.73;;;20.10;99.90;;;;;;4980060;28;20050;-58
2022/08/18 06:42:04;;;;;;;16.13;10.35;;;20.10;99.90;;;;;;4987309;28;20143;-58
2022/08/18 06:44:35;;;;;;;15.73;9.75;;;20.20;99.90;;;;;;4970889;28;20042;-59
2022/08/18 06:47:20;;;;;;;23.13;11.57;;;20.20;99.90;;;;;;4970804;28;20078;-60
2022/08/18 06:50:15;;;;;;;22.40;9.60;;;20.20;99.90;;;;;;4988082;28;20066;-59
2022/08/18 06:53:00;;;;;;;20.90;10.02;;;20.20;99.90;;;;;;4987547;28;20046;-58
2022/08/18 06:55:35;;;;;;;22.20;9.63;;;20.20;99.90;;;;;;4987554;28;20161;-58
2022/08/18 06:58:24;;;;;;;17.92;9.80;;;20.30;99.90;;;;;;4976170;28;20062;-59
2022/08/18 07:00:50;;;;;;;23.92;10.75;;;20.30;99.90;;;;;;4987216;28;20081;-58
2022/08/18 07:03:24;;;;;;;18.77;9.30;;;20.30;99.90;;;;;;4987714;28;20051;-58
2022/08/18 07:06:04;;;;;;;18.17;10.27;;;20.40;99.90;;;;;;4606469;28;10000316;-59
2022/08/18 07:08:36;;;;;;;17.13;10.38;;;20.40;99.90;;;;;;4970237;28;20338;-58
2022/08/18 07:11:26;;;;;;;15.82;9.15;;;20.50;99.90;;;;;;4979629;28;20046;-60
2022/08/18 07:13:55;;;;;;;23.90;11.00;;;20.50;99.90;;;;;;4966103;28;20050;-59
2022/08/18 07:16:41;;;;;;;16.05;8.77;;;20.50;99.90;;;;;;4979883;28;20136;-59
2022/08/18 07:19:28;;;;;;;21.75;10.65;;;20.40;99.90;;;;;;4978272;28;20137;-59
2022/08/18 07:22:08;;;;;;;15.45;9.88;;;20.40;99.90;;;;;;4982819;28;20516;-60
2022/08/18 07:24:43;;;;;;;16.13;10.38;;;20.40;99.90;;;;;;4988395;28;20501;-59
2022/08/18 07:27:18;;;;;;;16.92;9.95;;;20.50;99.90;;;;;;4987941;28;20455;-60
2022/08/18 07:29:58;;;;;;;21.90;10.32;;;20.50;99.90;;;;;;4970574;28;20517;-59
2022/08/18 07:32:29;;;;;;;17.23;9.23;;;20.50;99.90;;;;;;4988132;28;20085;-60
2022/08/18 07:34:57;;;;;;;17.30;9.52;;;20.60;99.90;;;;;;4955199;28;20051;-60
2022/08/18 07:37:30;;;;;;;20.00;8.45;;;20.70;99.90;;;;;;4970406;28;20057;-60
2022/08/18 07:40:10;;;;;;;16.85;9.63;;;20.80;99.90;;;;;;4987671;28;20124;-59
2022/08/18 07:43:16;;;;;;;16.25;10.05;;;20.90;99.90;;;;;;4985136;28;20082;-59
2022/08/18 07:45:44;;;;;;;20.60;9.00;;;20.90;99.90;;;;;;4944633;28;20079;-58
2022/08/18 07:48:12;;;;;;;15.13;7.47;;;21.10;99.90;;;;;;4987696;28;20050;-59
2022/08/18 07:51:08;;;;;;;21.92;9.70;;;21.10;99.90;;;;;;4976603;28;20057;-60
2022/08/18 07:53:38;;;;;;;11.32;8.60;;;21.00;99.90;;;;;;4985980;28;20056;-60
2022/08/18 07:56:12;;;;;;;14.18;7.95;;;21.00;99.90;;;;;;4985707;28;20045;-59
2022/08/18 07:58:46;;;;;;;12.77;7.57;;;21.00;99.90;;;;;;4970054;28;20077;-60
2022/08/18 08:01:37;;;;;;;11.75;7.00;;;21.00;99.90;;;;;;4970422;28;20059;-61
2022/08/18 08:04:58;;;;;;;20.98;7.53;;;21.00;99.90;;;;;;4972403;28;20050;-59
2022/08/18 08:07:51;;;;;;;13.77;7.22;;;21.10;99.90;;;;;;4887175;29;20110;-59
2022/08/18 08:10:40;;;;;;;13.25;7.55;;;21.20;99.90;;;;;;4988570;28;20046;-59
2022/08/18 08:13:15;;;;;;;12.90;6.60;;;21.30;99.90;;;;;;4974701;28;20174;-59
2022/08/18 08:16:05;;;;;;;13.50;8.57;;;21.30;99.90;;;;;;4974867;28;20420;-59
2022/08/18 08:18:59;;;;;;;17.02;9.27;;;21.20;99.90;;;;;;4985340;28;20498;-58
2022/08/18 08:21:30;;;;;;;16.98;7.78;;;21.00;99.90;;;;;;4963049;28;20085;-59
2022/08/18 08:24:16;;;;;;;15.30;7.80;;;20.90;99.90;;;;;;4967953;28;20056;-59
2022/08/18 08:26:46;;;;;;;13.65;6.63;;;20.90;99.90;;;;;;4986790;28;20053;-59
2022/08/18 08:29:28;;;;;;;10.38;7.00;;;21.00;99.90;;;;;;4986235;28;20038;-59
2022/08/18 08:32:08;;;;;;;15.82;6.95;;;21.10;99.90;;;;;;4968469;28;20058;-60
2022/08/18 08:34:44;;;;;;;10.30;6.53;;;21.20;99.90;;;;;;4967261;28;20456;-59
2022/08/18 08:37:18;;;;;;;8.63;6.78;;;21.30;99.90;;;;;;4968241;28;20047;-59
2022/08/18 08:39:59;;;;;;;9.98;6.75;;;21.30;99.90;;;;;;4967041;28;20505;-60
2022/08/18 08:42:48;;;;;;;14.70;7.38;;;21.30;99.90;;;;;;4985831;28;20046;-60
2022/08/18 08:45:21;;;;;;;12.88;6.60;;;21.40;99.90;;;;;;4980104;28;20046;-60
2022/08/18 08:47:57;;;;;;;9.68;6.78;;;21.50;99.90;;;;;;4970143;28;20470;-59
2022/08/18 08:50:44;;;;;;;17.10;7.05;;;21.60;99.90;;;;;;4970699;28;20061;-59
2022/08/18 08:53:37;;;;;;;10.48;6.40;;;21.70;99.90;;;;;;4986315;28;20042;-60
2022/08/18 08:56:09;;;;;;;10.30;7.10;;;21.80;99.90;;;;;;4968992;28;20056;-59
2022/08/18 08:58:51;;;;;;;14.20;7.82;;;21.90;99.90;;;;;;4968965;28;20042;-59
2022/08/18 09:01:59;;;;;;;13.75;6.68;;;21.90;99.90;;;;;;4986416;28;20117;-59
2022/08/18 09:04:39;;;;;;;10.40;7.00;;;21.70;99.90;;;;;;4971923;28;20054;-60
2022/08/18 09:07:53;;;;;;;14.20;7.85;;;21.60;99.90;;;;;;4984147;28;20043;-60
2022/08/18 09:10:38;;;;;;;11.30;7.20;;;21.70;99.90;;;;;;4952560;28;20046;-59
2022/08/18 09:13:15;;;;;;;12.98;7.72;;;21.80;99.90;;;;;;4953084;28;20362;-60
2022/08/18 09:16:06;;;;;;;10.27;6.80;;;21.90;99.90;;;;;;4977431;28;20112;-59
2022/08/18 09:19:15;;;;;;;13.57;7.85;;;22.10;99.90;;;;;;4986427;28;20165;-59
2022/08/18 09:22:28;;;;;;;10.77;6.65;;;22.20;99.90;;;;;;4971455;28;20645;-60
2022/08/18 09:24:55;;;;;;;10.15;6.45;;;22.50;99.90;;;;;;4950491;28;20083;-60
2022/08/18 09:27:31;;;;;;;12.75;5.60;;;22.70;99.90;;;;;;4968503;28;20097;-59
2022/08/18 09:30:55;;;;;;;8.38;6.20;;;22.80;99.90;;;;;;4986388;28;20816;-59
2022/08/18 09:33:47;;;;;;;8.45;6.03;;;23.00;99.90;;;;;;4984376;28;20101;-59
2022/08/18 09:36:32;;;;;;;9.02;5.93;;;23.20;99.90;;;;;;4982481;28;20046;-58
2022/08/18 09:42:25;;;;;;;12.93;6.28;;;23.50;99.90;;;;;;4979322;28;20049;-60
2022/08/18 09:44:59;;;;;;;16.65;7.65;;;23.40;99.90;;;;;;4972402;28;20086;-60
2022/08/18 09:47:26;;;;;;;11.23;7.22;;;23.10;99.90;;;;;;4985861;28;20580;-60
2022/08/18 09:50:02;;;;;;;11.90;6.57;;;22.80;99.90;;;;;;4985792;28;20050;-61
2022/08/18 09:52:49;;;;;;;11.05;5.53;;;22.80;99.90;;;;;;4971734;28;20632;-60
2022/08/18 09:55:16;;;;;;;11.63;6.97;;;22.70;99.90;;;;;;4968586;28;20109;-60
2022/08/18 09:57:44;;;;;;;10.52;6.50;;;22.70;99.90;;;;;;4985532;28;20456;-60
2022/08/18 10:00:12;;;;;;;12.40;6.25;;;22.60;99.90;;;;;;4952624;28;20054;-59
2022/08/18 10:02:42;;;;;;;12.38;7.10;;;22.60;99.90;;;;;;4985592;28;20077;-58
2022/08/18 10:05:14;;;;;;;10.35;6.30;;;22.60;99.90;;;;;;4985324;28;20077;-59
2022/08/18 10:07:57;;;;;;;13.18;6.55;;;22.50;99.90;;;;;;4985437;28;20046;-59
2022/08/18 10:10:38;;;;;;;9.10;5.63;;;22.60;99.90;;;;;;4962934;28;20066;-59
2022/08/18 10:13:34;;;;;;;9.27;6.25;;;22.70;99.90;;;;;;4979824;28;20525;-60
2022/08/18 10:16:24;;;;;;;7.53;5.53;;;22.80;99.90;;;;;;4985306;28;20413;-59
2022/08/18 10:19:07;;;;;;;11.38;5.85;;;22.70;99.90;;;;;;4985272;28;20042;-60
2022/08/18 10:21:56;;;;;;;10.65;5.50;;;22.70;99.90;;;;;;4985535;28;20057;-59
2022/08/18 10:24:28;;;;;;;11.77;6.43;;;22.70;99.90;;;;;;4985726;28;20160;-58
2022/08/18 10:27:40;;;;;;;11.55;6.20;;;22.60;99.90;;;;;;4970497;28;20053;-60
2022/08/18 10:30:08;;;;;;;18.27;8.18;;;22.60;99.90;;;;;;4982328;28;20080;-60
2022/08/18 10:32:40;;;;;;;10.48;6.25;;;22.70;99.90;;;;;;4982712;28;20133;-60
2022/08/18 10:35:53;;;;;;;9.25;5.80;;;22.70;99.90;;;;;;4982869;28;20108;-59
2022/08/18 10:38:26;;;;;;;9.85;6.00;;;22.80;99.90;;;;;;4977507;28;20333;-60
2022/08/18 10:41:05;;;;;;;10.32;5.03;;;22.70;99.90;;;;;;4955740;28;20050;-60
2022/08/18 10:43:52;;;;;;;6.50;4.72;;;22.80;99.90;;;;;;4961357;28;20049;-60
2022/08/18 10:46:28;;;;;;;9.40;5.05;;;22.90;99.90;;;;;;4985108;28;20056;-60
2022/08/18 10:49:12;;;;;;;7.32;4.85;;;23.10;99.90;;;;;;4959259;28;20046;-59
2022/08/18 10:51:43;;;;;;;7.05;5.10;;;23.00;99.90;;;;;;4977447;28;20074;-59
2022/08/18 10:54:37;;;;;;;8.43;4.93;;;23.10;99.90;;;;;;4984470;28;20327;-58
2022/08/18 10:57:31;;;;;;;6.85;5.63;;;23.10;99.90;;;;;;4982726;28;20065;-59
2022/08/18 11:00:17;;;;;;;6.63;5.55;;;23.20;99.90;;;;;;4964035;28;20058;-59
2022/08/18 11:02:46;;;;;;;12.43;6.18;;;23.40;99.90;;;;;;4987299;28;20046;-60
2022/08/18 11:05:17;;;;;;;9.05;6.20;;;23.50;99.90;;;;;;4988508;28;20421;-58
2022/08/18 11:07:47;;;;;;;11.15;6.30;;;23.50;99.90;;;;;;4971858;28;20045;-59
2022/08/18 11:10:33;;;;;;;9.52;6.90;;;23.50;99.90;;;;;;4972333;28;20134;-60
2022/08/18 11:13:31;;;;;;;12.32;6.63;;;23.70;99.90;;;;;;4968432;28;20050;-60
2022/08/18 11:16:08;;;;;;;10.20;6.65;;;23.50;99.90;;;;;;4972216;28;20054;-59
2022/08/18 11:18:40;;;;;;;9.32;6.45;;;23.40;99.90;;;;;;4980503;28;20329;-59
2022/08/18 11:21:42;;;;;;;8.38;6.60;;;23.60;99.90;;;;;;4970570;28;20055;-60
2022/08/18 11:24:16;;;;;;;11.43;6.90;;;23.70;99.90;;;;;;4985512;28;20057;-60
2022/08/18 11:26:55;;;;;;;8.40;7.43;;;23.90;99.90;;;;;;4989010;28;20053;-58
2022/08/18 11:29:38;;;;;;;9.10;7.63;;;24.00;99.90;;;;;;4989104;28;20505;-59
2022/08/18 11:32:25;;;;;;;8.35;7.10;;;24.00;99.90;;;;;;4971489;28;20081;-59
2022/08/18 11:35:01;;;;;;;11.13;7.40;;;24.10;99.90;;;;;;4988554;28;20058;-59
2022/08/18 11:37:30;;;;;;;7.45;6.65;;;24.30;99.90;;;;;;4972236;28;20054;-59
2022/08/18 11:40:20;;;;;;;10.23;6.13;;;24.50;99.90;;;;;;4987776;28;20051;-60
2022/08/18 11:43:12;;;;;;;7.38;6.50;;;24.50;99.90;;;;;;4979191;28;20170;-59
2022/08/18 11:46:00;;;;;;;6.57;5.90;;;24.80;98.70;;;;;;4971533;28;20042;-59
2022/08/18 11:48:32;;;;;;;11.30;6.95;;;25.00;96.60;;;;;;4963225;28;20472;-60
2022/08/18 11:51:51;;;;;;;9.07;7.38;;;25.10;97.80;;;;;;4980735;28;20580;-59
2022/08/18 11:54:20;;;;;;;10.18;8.15;;;25.40;95.30;;;;;;4971109;28;20108;-60
2022/08/18 11:56:50;;;;;;;16.83;8.98;;;25.50;97.50;;;;;;4971781;28;20054;-60
2022/08/18 11:59:30;;;;;;;9.68;8.68;;;25.50;97.30;;;;;;4971133;28;20078;-59
2022/08/18 12:02:18;;;;;;;12.05;8.90;;;25.50;95.90;;;;;;4988269;28;20136;-59
2022/08/18 12:04:48;;;;;;;10.80;8.70;;;25.40;97.50;;;;;;4970855;28;20238;-59
2022/08/18 12:07:16;;;;;;;12.10;9.02;;;25.30;96.30;;;;;;4988322;28;20054;-59
2022/08/18 12:09:48;;;;;;;11.85;8.45;;;25.20;97.40;;;;;;4988151;28;20068;-59
2022/08/18 12:12:43;;;;;;;8.75;7.05;;;25.20;97.60;;;;;;4988002;28;20061;-60
2022/08/18 12:15:11;;;;;;;8.38;6.97;;;25.20;94.70;;;;;;4970543;28;20050;-60
2022/08/18 12:17:59;;;;;;;10.10;7.30;;;25.10;95.70;;;;;;4987920;28;20049;-59
2022/08/18 12:20:26;;;;;;;13.98;7.63;;;25.10;96.00;;;;;;4987854;28;20109;-59
2022/08/18 12:22:55;;;;;;;14.43;9.30;;;25.20;95.00;;;;;;4987656;28;20049;-61
2022/08/18 12:25:23;;;;;;;17.45;9.52;;;25.30;94.90;;;;;;4987921;28;20501;-60
2022/08/18 12:27:52;;;;;;;8.77;7.95;;;25.30;95.80;;;;;;4970739;28;20074;-60
2022/08/18 12:30:19;;;;;;;9.88;8.88;;;25.40;95.50;;;;;;4987887;28;20109;-60
2022/08/18 12:32:46;;;;;;;10.18;8.95;;;25.40;94.60;;;;;;4987566;28;20069;-59
2022/08/18 12:35:16;;;;;;;12.45;7.93;;;25.20;95.20;;;;;;4987677;28;20093;-59
2022/08/18 12:37:48;;;;;;;9.57;8.35;;;25.20;94.70;;;;;;4987800;28;20048;-58
2022/08/18 12:40:35;;;;;;;13.40;8.05;;;25.10;95.40;;;;;;4984639;28;20050;-59
2022/08/18 12:43:02;;;;;;;12.43;8.07;;;25.20;96.00;;;;;;4987443;28;20062;-59
2022/08/18 12:45:31;;;;;;;10.55;9.45;;;25.20;95.80;;;;;;4981460;28;20050;-59
2022/08/18 12:48:01;;;;;;;14.82;8.18;;;25.10;95.40;;;;;;4965875;28;20081;-60
2022/08/18 12:50:30;;;;;;;12.20;8.48;;;24.90;95.90;;;;;;4987208;28;20050;-59
2022/08/18 12:53:05;;;;;;;12.77;8.63;;;25.00;96.80;;;;;;4986779;28;20054;-59
2022/08/18 12:55:35;;;;;;;12.73;8.63;;;25.20;96.40;;;;;;4987506;28;20054;-59
2022/08/18 12:58:09;;;;;;;12.82;8.15;;;25.50;95.80;;;;;;4970782;28;20066;-59
2022/08/18 13:00:38;;;;;;;10.65;8.02;;;25.60;95.00;;;;;;4987218;28;20197;-60
2022/08/18 13:03:06;;;;;;;10.10;8.88;;;25.90;94.70;;;;;;4987065;28;20046;-60
2022/08/18 13:05:34;;;;;;;11.18;8.07;;;26.00;93.40;;;;;;4987353;28;20050;-59
2022/08/18 13:08:03;;;;;;;9.65;8.15;;;25.90;93.20;;;;;;4986463;28;20043;-58
2022/08/18 13:10:33;;;;;;;11.52;7.55;;;25.90;93.20;;;;;;4969740;28;20509;-60
2022/08/18 13:13:12;;;;;;;11.00;8.55;;;25.90;93.00;;;;;;4985237;28;20046;-58
2022/08/18 13:15:39;;;;;;;10.85;8.00;;;25.70;92.80;;;;;;4985468;28;20475;-60
2022/08/18 13:18:24;;;;;;;10.38;7.13;;;25.60;93.60;;;;;;4971016;28;20069;-60
2022/08/18 13:20:53;;;;;;;8.25;6.78;;;25.60;93.40;;;;;;4985104;28;20092;-60
2022/08/18 13:23:20;;;;;;;9.70;7.10;;;25.60;93.70;;;;;;4984863;28;20498;-59
2022/08/18 13:25:51;;;;;;;10.70;6.63;;;25.60;93.40;;;;;;4985159;28;20057;-57
2022/08/18 13:28:28;;;;;;;9.18;6.57;;;25.70;93.90;;;;;;4984604;28;20054;-58
2022/08/18 13:30:56;;;;;;;7.53;5.65;;;26.00;93.40;;;;;;4984351;28;20046;-58
2022/08/18 13:33:24;;;;;;;7.78;6.53;;;26.00;92.70;;;;;;4985106;28;20517;-57
2022/08/18 13:36:11;;;;;;;9.10;6.28;;;26.10;92.80;;;;;;4985711;28;20838;-58
2022/08/18 13:38:40;;;;;;;7.40;5.75;;;26.10;92.10;;;;;;4984887;28;20086;-59